sensor_id;sensor_type;location;lat;lon;timestamp;temperature;humidity
33149;DHT22;19506;51.040;3.856;2023-01-09T00:01:38;17.20;99.90
33149;DHT22;19506;51.040;3.856;2023-01-09T00:04:04;17.20;99.90
33149;DHT22;19506;51.040;3.856;2023-01-09T00:06:30;17.20;99.90
33149;DHT22;19506;51.040;3.856;2023-01-09T00:08:56;17.20;99.90
33149;DHT22;19506;51.040;3.856;2023-01-09T00:11:21;17.30;99.90
33149;DHT22;19506;51.040;3.856;2023-01-09T00:13:47;17.20;99.90
33149;DHT22;19506;51.040;3.856;2023-01-09T00:16:13;17.20;99.90
33149;DHT22;19506;51.040;3.856;2023-01-09T00:18:39;17.20;99.90
33149;DHT22;19506;51.040;3.856;2023-01-09T00:21:07;17.20;99.90
33149;DHT22;19506;51.040;3.856;2023-01-09T00:23:33;17.20;99.90
33149;DHT22;19506;51.040;3.856;2023-01-09T00:26:13;17.20;99.90
33149;DHT22;19506;51.040;3.856;2023-01-09T00:28:39;17.20;99.90
33149;DHT22;19506;51.040;3.856;2023-01-09T00:31:06;17.20;99.90
33149;DHT22;19506;51.040;3.856;2023-01-09T00:33:41;17.20;99.90
33149;DHT22;19506;51.040;3.856;2023-01-09T00:36:07;17.20;99.90
33149;DHT22;19506;51.040;3.856;2023-01-09T00:38:33;17.20;99.90
33149;DHT22;19506;51.040;3.856;2023-01-09T00:41:01;17.10;99.90
33149;DHT22;19506;51.040;3.856;2023-01-09T00:43:31;17.10;99.90
33149;DHT22;19506;51.040;3.856;2023-01-09T00:46:00;17.10;99.90
33149;DHT22;19506;51.040;3.856;2023-01-09T00:48:27;17.10;99.90
33149;DHT22;19506;51.040;3.856;2023-01-09T00:50:57;17.20;99.90
33149;DHT22;19506;51.040;3.856;2023-01-09T00:53:25;17.10;99.90
33149;DHT22;19506;51.040;3.856;2023-01-09T00:55:52;17.10;99.90
33149;DHT22;19506;51.040;3.856;2023-01-09T00:58:18;17.10;99.90
33149;DHT22;19506;51.040;3.856;2023-01-09T01:00:44;17.10;99.90
33149;DHT22;19506;51.040;3.856;2023-01-09T01:03:09;17.10;99.90
33149;DHT22;19506;51.040;3.856;2023-01-09T01:05:35;17.10;99.90
33149;DHT22;19506;51.040;3.856;2023-01-09T01:08:19;17.10;99.90
33149;DHT22;19506;51.040;3.856;2023-01-09T01:10:45;17.10;99.90
33149;DHT22;19506;51.040;3.856;2023-01-09T01:13:12;17.10;99.90
33149;DHT22;19506;51.040;3.856;2023-01-09T01:15:39;17.10;99.90
33149;DHT22;19506;51.040;3.856;2023-01-09T01:18:05;17.10;99.90
33149;DHT22;19506;51.040;3.856;2023-01-09T01:20:31;17.10;99.90
33149;DHT22;19506;51.040;3.856;2023-01-09T01:22:57;17.10;99.90
33149;DHT22;19506;51.040;3.856;2023-01-09T01:25:22;17.10;99.90
33149;DHT22;19506;51.040;3.856;2023-01-09T01:27:48;17.10;99.90
33149;DHT22;19506;51.040;3.856;2023-01-09T01:30:15;17.10;99.90
33149;DHT22;19506;51.040;3.856;2023-01-09T01:32:41;17.10;99.90
33149;DHT22;19506;51.040;3.856;2023-01-09T01:35:06;17.10;99.90
33149;DHT22;19506;51.040;3.856;2023-01-09T01:37:33;17.00;99.90
33149;DHT22;19506;51.040;3.856;2023-01-09T01:39:59;17.10;99.90
33149;DHT22;19506;51.040;3.856;2023-01-09T01:42:25;17.10;99.90
33149;DHT22;19506;51.040;3.856;2023-01-09T06:02:01;16.60;99.90
33149;DHT22;19506;51.040;3.856;2023-01-09T06:04:26;16.70;99.90
33149;DHT22;19506;51.040;3.856;2023-01-09T06:06:54;16.70;99.90
33149;DHT22;19506;51.040;3.856;2023-01-09T06:09:20;16.70;99.90
33149;DHT22;19506;51.040;3.856;2023-01-09T06:11:46;16.70;99.90
33149;DHT22;19506;51.040;3.856;2023-01-09T06:14:11;16.70;99.90
33149;DHT22;19506;51.040;3.856;2023-01-09T06:16:37;16.70;99.90
33149;DHT22;19506;51.040;3.856;2023-01-09T06:19:02;16.70;99.90
33149;DHT22;19506;51.040;3.856;2023-01-09T06:21:30;16.70;99.90
33149;DHT22;19506;51.040;3.856;2023-01-09T06:23:57;16.70;99.90
33149;DHT22;19506;51.040;3.856;2023-01-09T06:26:23;16.70;99.90
33149;DHT22;19506;51.040;3.856;2023-01-09T06:28:49;16.70;99.90
33149;DHT22;19506;51.040;3.856;2023-01-09T06:31:15;16.60;99.90
33149;DHT22;19506;51.040;3.856;2023-01-09T06:33:40;16.60;99.90
33149;DHT22;19506;51.040;3.856;2023-01-09T06:36:06;16.70;99.90
33149;DHT22;19506;51.040;3.856;2023-01-09T06:38:32;16.60;99.90
33149;DHT22;19506;51.040;3.856;2023-01-09T06:40:57;16.70;99.90
33149;DHT22;19506;51.040;3.856;2023-01-09T06:43:23;16.70;99.90
33149;DHT22;19506;51.040;3.856;2023-01-09T06:45:49;16.70;99.90
33149;DHT22;19506;51.040;3.856;2023-01-09T06:48:14;16.60;99.90
33149;DHT22;19506;51.040;3.856;2023-01-09T06:50:40;16.60;99.90
33149;DHT22;19506;51.040;3.856;2023-01-09T06:53:06;16.60;99.90
33149;DHT22;19506;51.040;3.856;2023-01-09T06:55:31;16.60;99.90
33149;DHT22;19506;51.040;3.856;2023-01-09T06:57:57;16.60;99.90
33149;DHT22;19506;51.040;3.856;2023-01-09T07:00:23;16.70;99.90
33149;DHT22;19506;51.040;3.856;2023-01-09T07:02:49;16.70;99.90
33149;DHT22;19506;51.040;3.856;2023-01-09T07:05:15;16.70;99.90
33149;DHT22;19506;51.040;3.856;2023-01-09T07:07:41;16.70;99.90
33149;DHT22;19506;51.040;3.856;2023-01-09T07:10:08;16.70;99.90
33149;DHT22;19506;51.040;3.856;2023-01-09T07:12:34;16.70;99.90
33149;DHT22;19506;51.040;3.856;2023-01-09T07:15:00;16.70;99.90
33149;DHT22;19506;51.040;3.856;2023-01-09T07:17:25;16.70;99.90
33149;DHT22;19506;51.040;3.856;2023-01-09T07:19:51;16.70;99.90
33149;DHT22;19506;51.040;3.856;2023-01-09T07:22:17;16.70;99.90
33149;DHT22;19506;51.040;3.856;2023-01-09T07:24:43;16.70;99.90
33149;DHT22;19506;51.040;3.856;2023-01-09T07:27:10;16.70;99.90
33149;DHT22;19506;51.040;3.856;2023-01-09T07:29:36;16.60;99.90
33149;DHT22;19506;51.040;3.856;2023-01-09T07:32:02;16.70;99.90
33149;DHT22;19506;51.040;3.856;2023-01-09T07:34:28;16.70;99.90
33149;DHT22;19506;51.040;3.856;2023-01-09T07:36:53;16.60;99.90
33149;DHT22;19506;51.040;3.856;2023-01-09T07:39:19;16.60;99.90
33149;DHT22;19506;51.040;3.856;2023-01-09T07:41:46;16.70;99.90
33149;DHT22;19506;51.040;3.856;2023-01-09T07:44:12;16.60;99.90
33149;DHT22;19506;51.040;3.856;2023-01-09T07:46:38;16.60;99.90
33149;DHT22;19506;51.040;3.856;2023-01-09T07:49:04;16.60;99.90
33149;DHT22;19506;51.040;3.856;2023-01-09T07:51:29;16.60;99.90
33149;DHT22;19506;51.040;3.856;2023-01-09T07:53:55;16.60;99.90
33149;DHT22;19506;51.040;3.856;2023-01-09T07:56:20;16.60;99.90
33149;DHT22;19506;51.040;3.856;2023-01-09T07:58:46;16.60;99.90
33149;DHT22;19506;51.040;3.856;2023-01-09T08:01:11;16.60;99.90
33149;DHT22;19506;51.040;3.856;2023-01-09T08:03:37;16.60;99.90
33149;DHT22;19506;51.040;3.856;2023-01-09T08:06:03;16.60;99.90
33149;DHT22;19506;51.040;3.856;2023-01-09T08:08:28;16.60;99.90
33149;DHT22;19506;51.040;3.856;2023-01-09T08:10:54;16.60;99.90
33149;DHT22;19506;51.040;3.856;2023-01-09T08:13:20;16.60;99.90
33149;DHT22;19506;51.040;3.856;2023-01-09T08:15:46;16.60;99.90
33149;DHT22;19506;51.040;3.856;2023-01-09T08:18:11;16.60;99.90
33149;DHT22;19506;51.040;3.856;2023-01-09T08:20:37;16.60;99.90
33149;DHT22;19506;51.040;3.856;2023-01-09T08:23:02;16.60;99.90
33149;DHT22;19506;51.040;3.856;2023-01-09T08:25:28;16.60;99.90
33149;DHT22;19506;51.040;3.856;2023-01-09T08:27:54;16.60;99.90
33149;DHT22;19506;51.040;3.856;2023-01-09T08:30:20;16.60;99.90
33149;DHT22;19506;51.040;3.856;2023-01-09T08:32:52;16.60;99.90
33149;DHT22;19506;51.040;3.856;2023-01-09T08:35:18;16.60;99.90
33149;DHT22;19506;51.040;3.856;2023-01-09T08:37:45;16.60;99.90
33149;DHT22;19506;51.040;3.856;2023-01-09T08:40:12;16.60;99.90
33149;DHT22;19506;51.040;3.856;2023-01-09T08:42:38;16.50;99.90
33149;DHT22;19506;51.040;3.856;2023-01-09T08:45:22;16.50;99.90
33149;DHT22;19506;51.040;3.856;2023-01-09T08:48:06;16.50;99.90
33149;DHT22;19506;51.040;3.856;2023-01-09T08:50:32;16.50;99.90
33149;DHT22;19506;51.040;3.856;2023-01-09T08:52:58;16.50;99.90
33149;DHT22;19506;51.040;3.856;2023-01-09T08:55:24;16.50;99.90
33149;DHT22;19506;51.040;3.856;2023-01-09T08:57:51;16.50;99.90
33149;DHT22;19506;51.040;3.856;2023-01-09T09:00:18;16.50;99.90
33149;DHT22;19506;51.040;3.856;2023-01-09T09:02:44;16.50;99.90
33149;DHT22;19506;51.040;3.856;2023-01-09T09:05:10;16.50;99.90
33149;DHT22;19506;51.040;3.856;2023-01-09T09:07:36;16.50;99.90
33149;DHT22;19506;51.040;3.856;2023-01-09T09:10:02;16.50;99.90
33149;DHT22;19506;51.040;3.856;2023-01-09T09:12:28;16.50;99.90
33149;DHT22;19506;51.040;3.856;2023-01-09T09:14:54;16.50;99.90
33149;DHT22;19506;51.040;3.856;2023-01-09T09:17:39;16.50;99.90
33149;DHT22;19506;51.040;3.856;2023-01-09T09:20:09;16.50;99.90
33149;DHT22;19506;51.040;3.856;2023-01-09T09:22:35;16.50;99.90
33149;DHT22;19506;51.040;3.856;2023-01-09T09:25:00;16.50;99.90
33149;DHT22;19506;51.040;3.856;2023-01-09T09:27:27;16.50;99.90
33149;DHT22;19506;51.040;3.856;2023-01-09T09:29:53;16.50;99.90
33149;DHT22;19506;51.040;3.856;2023-01-09T09:32:18;16.60;99.90
33149;DHT22;19506;51.040;3.856;2023-01-09T09:34:44;16.60;99.90
33149;DHT22;19506;51.040;3.856;2023-01-09T09:37:10;16.60;99.90
33149;DHT22;19506;51.040;3.856;2023-01-09T09:39:35;16.50;99.90
33149;DHT22;19506;51.040;3.856;2023-01-09T09:50:56;16.50;99.90
33149;DHT22;19506;51.040;3.856;2023-01-09T09:53:46;16.50;99.90
33149;DHT22;19506;51.040;3.856;2023-01-09T09:56:15;16.50;99.90
33149;DHT22;19506;51.040;3.856;2023-01-09T09:58:55;16.50;99.90
33149;DHT22;19506;51.040;3.856;2023-01-09T10:02:05;16.50;99.90
33149;DHT22;19506;51.040;3.856;2023-01-09T10:04:32;16.50;99.90
33149;DHT22;19506;51.040;3.856;2023-01-09T10:07:03;16.50;99.90
33149;DHT22;19506;51.040;3.856;2023-01-09T10:09:53;16.50;99.90
33149;DHT22;19506;51.040;3.856;2023-01-09T10:12:30;16.50;99.90
33149;DHT22;19506;51.040;3.856;2023-01-09T10:15:00;16.50;99.90
33149;DHT22;19506;51.040;3.856;2023-01-09T10:25:56;16.60;99.90
33149;DHT22;19506;51.040;3.856;2023-01-09T10:31:31;16.60;99.90
33149;DHT22;19506;51.040;3.856;2023-01-09T10:39:34;16.60;99.90
33149;DHT22;19506;51.040;3.856;2023-01-09T10:45:18;16.60;99.90
33149;DHT22;19506;51.040;3.856;2023-01-09T10:47:46;16.70;99.90
33149;DHT22;19506;51.040;3.856;2023-01-09T10:50:24;16.70;99.90
33149;DHT22;19506;51.040;3.856;2023-01-09T10:52:54;16.70;99.90
33149;DHT22;19506;51.040;3.856;2023-01-09T10:55:41;16.70;99.90
33149;DHT22;19506;51.040;3.856;2023-01-09T10:58:21;16.70;99.90
33149;DHT22;19506;51.040;3.856;2023-01-09T11:00:48;16.70;99.90
33149;DHT22;19506;51.040;3.856;2023-01-09T11:03:20;16.70;99.90
33149;DHT22;19506;51.040;3.856;2023-01-09T11:05:52;16.70;99.90
33149;DHT22;19506;51.040;3.856;2023-01-09T11:08:40;16.70;99.90
33149;DHT22;19506;51.040;3.856;2023-01-09T11:11:08;16.80;99.90
33149;DHT22;19506;51.040;3.856;2023-01-09T11:13:36;16.80;99.90
33149;DHT22;19506;51.040;3.856;2023-01-09T11:16:21;16.70;99.90
33149;DHT22;19506;51.040;3.856;2023-01-09T11:18:59;16.70;99.90
33149;DHT22;19506;51.040;3.856;2023-01-09T11:21:37;16.70;99.90
33149;DHT22;19506;51.040;3.856;2023-01-09T11:26:51;16.70;99.90
33149;DHT22;19506;51.040;3.856;2023-01-09T11:29:22;16.70;99.90
33149;DHT22;19506;51.040;3.856;2023-01-09T11:31:56;16.70;99.90
33149;DHT22;19506;51.040;3.856;2023-01-09T11:34:25;16.70;99.90
33149;DHT22;19506;51.040;3.856;2023-01-09T11:36:52;16.70;99.90
33149;DHT22;19506;51.040;3.856;2023-01-09T11:39:24;16.70;99.90
33149;DHT22;19506;51.040;3.856;2023-01-09T11:41:56;16.80;99.90
33149;DHT22;19506;51.040;3.856;2023-01-09T11:44:24;16.70;99.90
33149;DHT22;19506;51.040;3.856;2023-01-09T11:46:50;16.70;99.90
33149;DHT22;19506;51.040;3.856;2023-01-09T11:51:43;16.70;99.90
33149;DHT22;19506;51.040;3.856;2023-01-09T11:54:24;16.80;99.90
33149;DHT22;19506;51.040;3.856;2023-01-09T11:56:52;16.80;99.90
33149;DHT22;19506;51.040;3.856;2023-01-09T11:59:20;16.70;99.90
33149;DHT22;19506;51.040;3.856;2023-01-09T12:05:00;16.70;99.90
33149;DHT22;19506;51.040;3.856;2023-01-09T12:07:53;16.70;99.90
33149;DHT22;19506;51.040;3.856;2023-01-09T12:10:46;16.70;99.90
33149;DHT22;19506;51.040;3.856;2023-01-09T12:16:24;17.00;99.90
33149;DHT22;19506;51.040;3.856;2023-01-09T12:24:54;17.10;99.90
33149;DHT22;19506;51.040;3.856;2023-01-09T12:27:28;17.10;99.90
33149;DHT22;19506;51.040;3.856;2023-01-09T12:30:33;17.10;99.90
33149;DHT22;19506;51.040;3.856;2023-01-09T12:33:10;17.00;99.90
33149;DHT22;19506;51.040;3.856;2023-01-09T12:38:54;17.00;99.90
33149;DHT22;19506;51.040;3.856;2023-01-09T12:52:43;17.00;99.90
33149;DHT22;19506;51.040;3.856;2023-01-09T12:55:18;17.10;99.90
33149;DHT22;19506;51.040;3.856;2023-01-09T12:57:50;17.00;99.90
33149;DHT22;19506;51.040;3.856;2023-01-09T13:00:23;17.10;99.90
33149;DHT22;19506;51.040;3.856;2023-01-09T13:05:39;17.10;99.90
33149;DHT22;19506;51.040;3.856;2023-01-09T13:08:24;17.20;99.90
33149;DHT22;19506;51.040;3.856;2023-01-09T13:11:09;17.20;99.90
33149;DHT22;19506;51.040;3.856;2023-01-09T13:13:46;17.10;99.90
33149;DHT22;19506;51.040;3.856;2023-01-09T13:16:41;16.90;99.90
33149;DHT22;19506;51.040;3.856;2023-01-09T13:21:37;16.90;99.90
33149;DHT22;19506;51.040;3.856;2023-01-09T13:27:08;16.80;99.90
33149;DHT22;19506;51.040;3.856;2023-01-09T13:29:42;16.80;99.90
33149;DHT22;19506;51.040;3.856;2023-01-09T13:34:44;16.70;99.90
33149;DHT22;19506;51.040;3.856;2023-01-09T13:37:28;16.70;99.90
33149;DHT22;19506;51.040;3.856;2023-01-09T13:40:00;16.70;99.90
33149;DHT22;19506;51.040;3.856;2023-01-09T13:42:27;16.80;99.90
33149;DHT22;19506;51.040;3.856;2023-01-09T13:45:28;16.80;99.90
33149;DHT22;19506;51.040;3.856;2023-01-09T13:48:23;16.80;99.90
33149;DHT22;19506;51.040;3.856;2023-01-09T13:50:49;16.70;99.90
33149;DHT22;19506;51.040;3.856;2023-01-09T13:56:05;16.60;99.90
33149;DHT22;19506;51.040;3.856;2023-01-09T14:06:34;17.10;99.90
33149;DHT22;19506;51.040;3.856;2023-01-09T14:09:18;17.10;99.90
33149;DHT22;19506;51.040;3.856;2023-01-09T14:11:45;17.20;99.90
33149;DHT22;19506;51.040;3.856;2023-01-09T14:14:25;17.30;99.90
33149;DHT22;19506;51.040;3.856;2023-01-09T14:16:53;17.30;99.90
33149;DHT22;19506;51.040;3.856;2023-01-09T14:19:34;17.30;99.90
33149;DHT22;19506;51.040;3.856;2023-01-09T14:22:01;17.30;99.90
33149;DHT22;19506;51.040;3.856;2023-01-09T14:24:42;17.30;99.90
33149;DHT22;19506;51.040;3.856;2023-01-09T14:27:49;17.20;99.90
33149;DHT22;19506;51.040;3.856;2023-01-09T14:35:27;17.10;99.90
33149;DHT22;19506;51.040;3.856;2023-01-09T14:38:18;17.10;99.90
33149;DHT22;19506;51.040;3.856;2023-01-09T14:44:04;17.10;99.90
33149;DHT22;19506;51.040;3.856;2023-01-09T14:46:33;17.10;99.90
33149;DHT22;19506;51.040;3.856;2023-01-09T14:49:06;17.10;99.90
33149;DHT22;19506;51.040;3.856;2023-01-09T14:51:36;17.10;99.90
33149;DHT22;19506;51.040;3.856;2023-01-09T14:54:29;17.10;99.90
33149;DHT22;19506;51.040;3.856;2023-01-09T14:56:56;17.10;99.90
33149;DHT22;19506;51.040;3.856;2023-01-09T14:59:21;17.10;99.90
33149;DHT22;19506;51.040;3.856;2023-01-09T15:01:49;17.10;99.90
33149;DHT22;19506;51.040;3.856;2023-01-09T15:06:47;17.10;99.90
33149;DHT22;19506;51.040;3.856;2023-01-09T15:09:17;17.10;99.90
33149;DHT22;19506;51.040;3.856;2023-01-09T15:11:44;17.00;99.90
33149;DHT22;19506;51.040;3.856;2023-01-09T15:14:20;16.90;99.90
33149;DHT22;19506;51.040;3.856;2023-01-09T15:16:48;16.80;99.90
33149;DHT22;19506;51.040;3.856;2023-01-09T15:19:14;16.80;99.90
33149;DHT22;19506;51.040;3.856;2023-01-09T15:21:39;16.80;99.90
33149;DHT22;19506;51.040;3.856;2023-01-09T15:24:22;16.80;99.90
33149;DHT22;19506;51.040;3.856;2023-01-09T15:26:57;16.80;99.90
33149;DHT22;19506;51.040;3.856;2023-01-09T15:29:23;16.80;99.90
33149;DHT22;19506;51.040;3.856;2023-01-09T15:31:57;16.70;99.90
33149;DHT22;19506;51.040;3.856;2023-01-09T15:34:24;16.70;99.90
33149;DHT22;19506;51.040;3.856;2023-01-09T15:36:51;16.70;99.90
33149;DHT22;19506;51.040;3.856;2023-01-09T15:39:29;16.60;99.90
33149;DHT22;19506;51.040;3.856;2023-01-09T15:41:57;16.60;99.90
33149;DHT22;19506;51.040;3.856;2023-01-09T15:45:02;16.50;99.90
33149;DHT22;19506;51.040;3.856;2023-01-09T15:47:31;16.60;99.90
33149;DHT22;19506;51.040;3.856;2023-01-09T15:50:04;16.80;99.90
33149;DHT22;19506;51.040;3.856;2023-01-09T15:52:30;16.90;99.90
33149;DHT22;19506;51.040;3.856;2023-01-09T15:54:56;17.10;99.90
33149;DHT22;19506;51.040;3.856;2023-01-09T15:59:50;17.40;99.90
33149;DHT22;19506;51.040;3.856;2023-01-09T19:02:58;18.60;99.90
33149;DHT22;19506;51.040;3.856;2023-01-09T19:10:16;18.50;99.90
33149;DHT22;19506;51.040;3.856;2023-01-09T19:12:42;18.60;99.90
33149;DHT22;19506;51.040;3.856;2023-01-09T19:17:39;18.50;99.90
33149;DHT22;19506;51.040;3.856;2023-01-09T19:20:06;18.50;99.90
33149;DHT22;19506;51.040;3.856;2023-01-09T19:22:32;18.50;99.90
33149;DHT22;19506;51.040;3.856;2023-01-09T19:24:57;18.50;99.90
33149;DHT22;19506;51.040;3.856;2023-01-09T19:29:49;18.60;99.90
33149;DHT22;19506;51.040;3.856;2023-01-09T19:32:15;18.50;99.90
33149;DHT22;19506;51.040;3.856;2023-01-09T19:42:02;18.50;99.90
33149;DHT22;19506;51.040;3.856;2023-01-09T19:44:27;18.40;99.90
33149;DHT22;19506;51.040;3.856;2023-01-09T19:46:54;18.30;99.90
33149;DHT22;19506;51.040;3.856;2023-01-09T19:49:20;18.20;99.90
33149;DHT22;19506;51.040;3.856;2023-01-09T19:51:46;18.10;99.90
33149;DHT22;19506;51.040;3.856;2023-01-09T19:54:11;18.10;99.90
33149;DHT22;19506;51.040;3.856;2023-01-09T19:56:38;18.10;99.90
33149;DHT22;19506;51.040;3.856;2023-01-09T19:59:05;18.00;99.90
33149;DHT22;19506;51.040;3.856;2023-01-09T20:01:33;18.00;99.90
33149;DHT22;19506;51.040;3.856;2023-01-09T20:04:01;18.00;99.90
33149;DHT22;19506;51.040;3.856;2023-01-09T20:06:29;17.90;99.90
33149;DHT22;19506;51.040;3.856;2023-01-09T20:08:57;17.90;99.90
33149;DHT22;19506;51.040;3.856;2023-01-09T20:11:25;17.90;99.90
33149;DHT22;19506;51.040;3.856;2023-01-09T20:13:52;17.90;99.90
33149;DHT22;19506;51.040;3.856;2023-01-09T20:16:19;17.90;99.90
33149;DHT22;19506;51.040;3.856;2023-01-09T20:18:46;17.90;99.90
33149;DHT22;19506;51.040;3.856;2023-01-09T20:21:16;17.90;99.90
33149;DHT22;19506;51.040;3.856;2023-01-09T20:23:43;17.80;99.90
33149;DHT22;19506;51.040;3.856;2023-01-09T20:26:08;17.80;99.90
33149;DHT22;19506;51.040;3.856;2023-01-09T20:28:34;17.70;99.90
33149;DHT22;19506;51.040;3.856;2023-01-09T20:31:00;17.70;99.90
33149;DHT22;19506;51.040;3.856;2023-01-09T20:33:27;17.70;99.90
33149;DHT22;19506;51.040;3.856;2023-01-09T20:35:53;17.60;99.90
33149;DHT22;19506;51.040;3.856;2023-01-09T20:38:18;17.60;99.90
33149;DHT22;19506;51.040;3.856;2023-01-09T20:40:44;17.60;99.90
33149;DHT22;19506;51.040;3.856;2023-01-09T20:43:10;17.60;99.90
33149;DHT22;19506;51.040;3.856;2023-01-09T20:45:39;17.60;99.90
33149;DHT22;19506;51.040;3.856;2023-01-09T20:48:05;17.60;99.90
33149;DHT22;19506;51.040;3.856;2023-01-09T20:50:31;17.60;99.90
33149;DHT22;19506;51.040;3.856;2023-01-09T20:52:57;17.50;99.90
33149;DHT22;19506;51.040;3.856;2023-01-09T20:55:23;17.60;99.90
33149;DHT22;19506;51.040;3.856;2023-01-09T20:57:48;17.70;99.90
33149;DHT22;19506;51.040;3.856;2023-01-09T21:00:14;17.90;99.90
33149;DHT22;19506;51.040;3.856;2023-01-09T21:02:40;18.00;99.90
33149;DHT22;19506;51.040;3.856;2023-01-09T21:05:06;18.00;99.90
33149;DHT22;19506;51.040;3.856;2023-01-09T21:07:32;17.90;99.90
33149;DHT22;19506;51.040;3.856;2023-01-09T21:09:57;17.80;99.90
33149;DHT22;19506;51.040;3.856;2023-01-09T21:12:23;17.80;99.90
33149;DHT22;19506;51.040;3.856;2023-01-09T21:14:50;17.70;99.90
33149;DHT22;19506;51.040;3.856;2023-01-09T21:17:16;17.70;99.90
33149;DHT22;19506;51.040;3.856;2023-01-09T21:19:41;17.60;99.90
33149;DHT22;19506;51.040;3.856;2023-01-09T21:22:07;17.60;99.90
33149;DHT22;19506;51.040;3.856;2023-01-09T21:24:33;17.60;99.90
33149;DHT22;19506;51.040;3.856;2023-01-09T21:26:58;17.60;99.90
33149;DHT22;19506;51.040;3.856;2023-01-09T21:29:24;17.60;99.90
33149;DHT22;19506;51.040;3.856;2023-01-09T21:31:50;17.60;99.90
33149;DHT22;19506;51.040;3.856;2023-01-09T21:34:15;17.60;99.90
33149;DHT22;19506;51.040;3.856;2023-01-09T21:36:45;17.60;99.90
33149;DHT22;19506;51.040;3.856;2023-01-09T21:39:13;17.60;99.90
33149;DHT22;19506;51.040;3.856;2023-01-09T21:41:39;17.60;99.90
33149;DHT22;19506;51.040;3.856;2023-01-09T21:44:23;17.50;99.90
33149;DHT22;19506;51.040;3.856;2023-01-09T21:47:08;17.60;99.90
33149;DHT22;19506;51.040;3.856;2023-01-09T21:49:33;17.60;99.90
33149;DHT22;19506;51.040;3.856;2023-01-09T21:52:01;17.60;99.90
33149;DHT22;19506;51.040;3.856;2023-01-09T21:54:29;17.50;99.90
33149;DHT22;19506;51.040;3.856;2023-01-09T21:56:55;17.50;99.90
33149;DHT22;19506;51.040;3.856;2023-01-09T21:59:21;17.50;99.90
33149;DHT22;19506;51.040;3.856;2023-01-09T22:01:50;17.40;99.90
33149;DHT22;19506;51.040;3.856;2023-01-09T22:04:18;17.30;99.90
33149;DHT22;19506;51.040;3.856;2023-01-09T22:06:44;17.30;99.90
33149;DHT22;19506;51.040;3.856;2023-01-09T22:09:10;17.30;99.90
33149;DHT22;19506;51.040;3.856;2023-01-09T22:11:37;17.20;99.90
33149;DHT22;19506;51.040;3.856;2023-01-09T22:14:03;17.20;99.90
33149;DHT22;19506;51.040;3.856;2023-01-09T22:16:29;17.20;99.90
33149;DHT22;19506;51.040;3.856;2023-01-09T22:18:55;17.20;99.90
33149;DHT22;19506;51.040;3.856;2023-01-09T22:21:22;17.20;99.90
33149;DHT22;19506;51.040;3.856;2023-01-09T22:23:48;17.20;99.90
33149;DHT22;19506;51.040;3.856;2023-01-09T22:26:14;17.20;99.90
33149;DHT22;19506;51.040;3.856;2023-01-09T22:28:40;17.10;99.90
33149;DHT22;19506;51.040;3.856;2023-01-09T22:31:15;17.10;99.90
33149;DHT22;19506;51.040;3.856;2023-01-09T22:33:41;17.10;99.90
33149;DHT22;19506;51.040;3.856;2023-01-09T22:36:08;17.10;99.90
33149;DHT22;19506;51.040;3.856;2023-01-09T22:38:34;17.10;99.90
33149;DHT22;19506;51.040;3.856;2023-01-09T22:41:00;17.10;99.90
33149;DHT22;19506;51.040;3.856;2023-01-09T22:43:27;17.10;99.90
33149;DHT22;19506;51.040;3.856;2023-01-09T22:46:00;17.10;99.90
33149;DHT22;19506;51.040;3.856;2023-01-09T22:48:27;17.10;99.90
33149;DHT22;19506;51.040;3.856;2023-01-09T22:51:22;17.10;99.90
33149;DHT22;19506;51.040;3.856;2023-01-09T22:53:48;17.00;99.90
33149;DHT22;19506;51.040;3.856;2023-01-09T22:56:17;17.00;99.90
33149;DHT22;19506;51.040;3.856;2023-01-09T22:58:48;17.00;99.90
33149;DHT22;19506;51.040;3.856;2023-01-09T23:01:14;17.00;99.90
33149;DHT22;19506;51.040;3.856;2023-01-09T23:03:39;17.00;99.90
33149;DHT22;19506;51.040;3.856;2023-01-09T23:06:09;17.00;99.90
33149;DHT22;19506;51.040;3.856;2023-01-09T23:08:35;16.90;99.90
33149;DHT22;19506;51.040;3.856;2023-01-09T23:11:01;16.90;99.90
33149;DHT22;19506;51.040;3.856;2023-01-09T23:13:27;16.90;99.90
33149;DHT22;19506;51.040;3.856;2023-01-09T23:15:53;16.90;99.90
33149;DHT22;19506;51.040;3.856;2023-01-09T23:18:19;16.90;99.90
33149;DHT22;19506;51.040;3.856;2023-01-09T23:20:51;16.90;99.90
33149;DHT22;19506;51.040;3.856;2023-01-09T23:23:17;16.80;99.90
33149;DHT22;19506;51.040;3.856;2023-01-09T23:25:47;16.80;99.90
33149;DHT22;19506;51.040;3.856;2023-01-09T23:28:12;16.80;99.90
33149;DHT22;19506;51.040;3.856;2023-01-09T23:30:38;16.80;99.90
33149;DHT22;19506;51.040;3.856;2023-01-09T23:33:03;16.80;99.90
33149;DHT22;19506;51.040;3.856;2023-01-09T23:35:29;16.80;99.90
33149;DHT22;19506;51.040;3.856;2023-01-09T23:37:54;16.80;99.90
33149;DHT22;19506;51.040;3.856;2023-01-09T23:40:20;16.80;99.90
33149;DHT22;19506;51.040;3.856;2023-01-09T23:42:46;16.80;99.90
33149;DHT22;19506;51.040;3.856;2023-01-09T23:45:30;16.80;99.90
33149;DHT22;19506;51.040;3.856;2023-01-09T23:47:55;16.70;99.90
33149;DHT22;19506;51.040;3.856;2023-01-09T23:50:21;16.70;99.90
33149;DHT22;19506;51.040;3.856;2023-01-09T23:52:46;16.80;99.90
33149;DHT22;19506;51.040;3.856;2023-01-09T23:55:12;16.80;99.90
33149;DHT22;19506;51.040;3.856;2023-01-09T23:57:39;16.80;99.90
